Time;durP1;ratioP1;P1;durP2;ratioP2;P2;SDS_P1;SDS_P2;PMS_P1;PMS_P2;Temp;Humidity;BMP_temperature;BMP_pressure;BME280_temperature;BME280_humidity;BME280_pressure;Samples;Min_cycle;Max_cycle;Signal;HPM_P1;HPM_P2
2023/11/09 00:01:37;;;;;;;28.67;18.48;;;3.40;99.90;;;;;;5076968;28;20030;-78
2023/11/09 00:04:03;;;;;;;36.90;19.92;;;3.30;99.90;;;;;;5077068;28;20051;-77
2023/11/09 00:06:29;;;;;;;36.65;19.15;;;3.20;99.90;;;;;;5076789;28;20018;-77
2023/11/09 00:08:55;;;;;;;32.38;17.33;;;3.20;99.90;;;;;;5077215;28;20033;-77
2023/11/09 00:11:21;;;;;;;34.42;18.20;;;3.10;99.90;;;;;;5077048;28;20030;-80
2023/11/09 00:13:49;;;;;;;25.83;16.70;;;3.00;99.90;;;;;;5009472;28;20155;-76
2023/11/09 00:16:14;;;;;;;25.50;17.20;;;3.00;99.90;;;;;;5082492;28;20036;-76
2023/11/09 00:18:40;;;;;;;31.98;17.83;;;2.90;99.90;;;;;;5009161;28;20081;-77
2023/11/09 00:21:06;;;;;;;34.95;17.38;;;2.80;99.90;;;;;;5009139;28;20022;-81
2023/11/09 00:23:32;;;;;;;29.45;16.50;;;2.80;99.90;;;;;;5077063;28;20018;-81
2023/11/09 00:25:58;;;;;;;32.83;18.60;;;2.70;99.90;;;;;;5008182;28;20026;-82
2023/11/09 00:28:25;;;;;;;26.33;16.90;;;2.70;99.90;;;;;;5080731;28;20014;-82
2023/11/09 00:30:50;;;;;;;29.20;15.45;;;2.60;99.90;;;;;;5080190;28;20528;-82
2023/11/09 00:33:16;;;;;;;27.92;15.55;;;2.60;99.90;;;;;;5080395;28;20022;-77
2023/11/09 00:35:43;;;;;;;31.95;17.35;;;2.50;99.90;;;;;;5080308;28;20030;-82
2023/11/09 00:38:14;;;;;;;21.75;14.38;;;2.50;99.90;;;;;;5075801;28;20031;-81
2023/11/09 00:40:40;;;;;;;28.15;16.48;;;2.50;99.90;;;;;;5010385;28;20510;-76
2023/11/09 00:43:06;;;;;;;28.42;15.52;;;2.40;99.90;;;;;;5080212;28;20045;-81
2023/11/09 00:45:34;;;;;;;26.42;15.35;;;2.30;99.90;;;;;;5011873;28;20018;-76
2023/11/09 00:48:03;;;;;;;27.70;14.75;;;2.30;99.90;;;;;;5079895;28;20136;-76
2023/11/09 00:50:29;;;;;;;29.38;15.88;;;2.20;99.90;;;;;;5076923;28;20029;-81
2023/11/09 00:52:55;;;;;;;31.58;15.70;;;2.20;99.90;;;;;;5080352;28;20026;-81
2023/11/09 00:55:20;;;;;;;27.70;17.02;;;2.20;99.90;;;;;;5011846;28;20512;-81
2023/11/09 00:57:46;;;;;;;27.05;15.32;;;2.10;99.90;;;;;;5012044;28;20022;-81
2023/11/09 01:00:12;;;;;;;25.17;15.90;;;2.00;99.90;;;;;;5011645;28;20424;-81
2023/11/09 01:02:39;;;;;;;32.63;15.00;;;2.00;99.90;;;;;;5079974;28;20143;-82
2023/11/09 01:05:09;;;;;;;27.92;15.40;;;2.00;99.90;;;;;;5079676;28;20059;-81
2023/11/09 01:07:35;;;;;;;28.38;14.63;;;1.90;99.90;;;;;;5011831;28;20063;-76
2023/11/09 01:10:00;;;;;;;26.85;15.02;;;1.90;99.90;;;;;;5079673;28;20018;-81
2023/11/09 01:12:27;;;;;;;28.40;14.98;;;1.80;99.90;;;;;;5079780;28;20073;-80
2023/11/09 01:14:52;;;;;;;29.65;17.77;;;1.70;99.90;;;;;;5075694;28;20038;-81
2023/11/09 01:17:18;;;;;;;28.15;16.25;;;1.70;99.90;;;;;;5007266;28;20025;-81
2023/11/09 01:19:44;;;;;;;31.15;17.20;;;1.70;99.90;;;;;;5011208;28;20036;-81
2023/11/09 01:22:09;;;;;;;31.25;17.92;;;1.60;99.90;;;;;;5076301;28;20480;-76
2023/11/09 01:24:35;;;;;;;32.10;16.90;;;1.50;99.90;;;;;;5007327;28;20021;-81
2023/11/09 01:27:01;;;;;;;28.55;15.55;;;1.50;99.90;;;;;;5011489;28;20041;-76
2023/11/09 01:29:26;;;;;;;26.58;15.23;;;1.40;99.90;;;;;;5079601;28;20132;-76
2023/11/09 01:31:54;;;;;;;28.67;15.82;;;1.40;99.90;;;;;;5011303;28;20032;-81
2023/11/09 01:34:20;;;;;;;29.35;15.90;;;1.40;99.90;;;;;;5011068;28;20517;-76
2023/11/09 01:36:46;;;;;;;30.65;14.48;;;1.30;99.90;;;;;;5077889;28;20030;-75
2023/11/09 01:39:12;;;;;;;23.00;13.90;;;1.30;99.90;;;;;;5075221;28;20503;-76
2023/11/09 01:41:38;;;;;;;74.50;32.15;;;1.30;99.90;;;;;;5070189;28;20018;-76
2023/11/09 01:44:04;;;;;;;38.33;18.90;;;1.20;99.90;;;;;;5011288;28;20559;-76
2023/11/09 01:46:31;;;;;;;31.60;15.52;;;1.20;99.90;;;;;;5078506;28;20140;-81
2023/11/09 01:48:58;;;;;;;28.83;16.52;;;1.20;99.90;;;;;;5078618;28;20391;-81
2023/11/09 01:51:25;;;;;;;26.23;15.18;;;1.10;99.90;;;;;;5010830;28;20022;-81
2023/11/09 01:53:52;;;;;;;29.40;16.23;;;1.10;99.90;;;;;;5016139;28;20049;-81
2023/11/09 01:56:19;;;;;;;26.17;15.25;;;1.10;99.90;;;;;;5021950;28;20041;-80
2023/11/09 01:58:47;;;;;;;31.92;18.70;;;1.10;99.90;;;;;;5078889;28;20064;-76
2023/11/09 02:01:13;;;;;;;28.80;17.35;;;1.00;99.90;;;;;;5010718;28;20018;-81
2023/11/09 02:03:43;;;;;;;33.60;17.45;;;1.00;99.90;;;;;;5078771;28;20066;-76
2023/11/09 02:06:09;;;;;;;30.40;18.50;;;1.00;99.90;;;;;;5078366;28;20018;-76
2023/11/09 02:08:38;;;;;;;28.55;17.02;;;0.90;99.90;;;;;;5078590;28;20528;-76
2023/11/09 02:11:05;;;;;;;27.63;17.17;;;0.90;99.90;;;;;;5078481;28;20413;-76
2023/11/09 02:13:32;;;;;;;27.98;16.48;;;0.90;99.90;;;;;;5075594;28;20027;-81
2023/11/09 02:15:59;;;;;;;29.52;16.75;;;0.80;99.90;;;;;;5004386;28;20042;-79
2023/11/09 02:18:26;;;;;;;33.33;18.10;;;0.80;99.90;;;;;;5071103;28;20026;-77
2023/11/09 02:20:52;;;;;;;33.17;15.32;;;0.70;99.90;;;;;;5078101;28;20018;-77
2023/11/09 02:23:25;;;;;;;25.10;14.95;;;0.70;99.90;;;;;;5078282;28;20083;-76
2023/11/09 02:25:52;;;;;;;30.65;16.08;;;0.70;99.90;;;;;;5077656;28;20029;-76
2023/11/09 02:28:19;;;;;;;27.60;14.70;;;0.60;99.90;;;;;;5010430;28;20487;-77
2023/11/09 02:30:44;;;;;;;31.17;15.68;;;0.60;99.90;;;;;;5078310;28;20021;-77
2023/11/09 02:33:10;;;;;;;35.42;18.50;;;0.60;99.90;;;;;;5075717;28;20041;-77
2023/11/09 02:35:37;;;;;;;34.40;18.90;;;0.60;99.90;;;;;;5010490;28;20034;-76
2023/11/09 02:38:04;;;;;;;33.63;18.60;;;0.50;99.90;;;;;;5077972;28;20025;-76
2023/11/09 02:40:29;;;;;;;30.13;17.52;;;0.50;99.90;;;;;;5010586;28;20098;-79
2023/11/09 02:42:56;;;;;;;29.85;17.98;;;0.60;99.90;;;;;;5010320;28;20056;-81
2023/11/09 02:45:21;;;;;;;25.25;15.10;;;0.50;99.90;;;;;;5078113;28;20041;-76
2023/11/09 02:47:47;;;;;;;29.45;16.15;;;0.50;99.90;;;;;;5075238;28;20082;-80
2023/11/09 02:50:14;;;;;;;28.73;15.82;;;0.50;99.90;;;;;;5010285;28;20109;-76
2023/11/09 02:52:41;;;;;;;19.77;12.32;;;0.50;99.90;;;;;;5077970;28;20094;-76
2023/11/09 02:55:08;;;;;;;20.20;12.50;;;0.40;99.90;;;;;;5010341;28;20038;-76
2023/11/09 02:57:34;;;;;;;25.30;13.55;;;0.50;99.90;;;;;;5010285;28;20049;-80
2023/11/09 03:00:03;;;;;;;25.80;15.50;;;0.40;99.90;;;;;;5010559;28;20033;-80
2023/11/09 03:02:28;;;;;;;29.65;16.58;;;0.40;99.90;;;;;;5077469;28;20508;-76
2023/11/09 03:04:54;;;;;;;35.88;19.20;;;0.40;99.90;;;;;;5077729;28;20014;-76
2023/11/09 03:07:20;;;;;;;37.13;18.40;;;0.40;99.90;;;;;;5077893;28;20170;-77
2023/11/09 03:09:45;;;;;;;34.78;19.05;;;0.30;99.90;;;;;;5077705;28;20067;-75
2023/11/09 03:12:11;;;;;;;38.13;19.60;;;0.20;99.90;;;;;;5077582;28;20025;-75
2023/11/09 03:14:37;;;;;;;35.88;19.55;;;0.30;99.90;;;;;;5010116;28;20090;-76
2023/11/09 03:17:07;;;;;;;22.98;14.38;;;0.20;99.90;;;;;;5077246;28;20419;-76
2023/11/09 03:19:33;;;;;;;16.73;10.95;;;0.20;99.90;;;;;;5077523;28;20014;-76
2023/11/09 03:21:59;;;;;;;20.85;11.40;;;0.10;99.90;;;;;;5009876;28;20746;-76
2023/11/09 03:24:24;;;;;;;28.83;13.40;;;0.20;99.90;;;;;;5009773;28;20018;-76
2023/11/09 03:26:50;;;;;;;19.70;11.82;;;0.20;99.90;;;;;;5077251;28;20030;-80
2023/11/09 03:29:16;;;;;;;18.38;12.00;;;0.10;99.90;;;;;;5010220;28;20032;-77
2023/11/09 03:31:42;;;;;;;28.30;14.15;;;0.10;99.90;;;;;;5077067;28;20117;-80
2023/11/09 03:34:08;;;;;;;28.27;13.98;;;0.10;99.90;;;;;;5009846;28;20431;-81
2023/11/09 03:36:34;;;;;;;39.42;19.23;;;0.10;99.90;;;;;;5009389;28;20113;-76
2023/11/09 03:39:00;;;;;;;105.55;32.45;;;0.00;99.90;;;;;;5009727;28;20040;-80
2023/11/09 03:41:26;;;;;;;128.95;41.22;;;0.00;99.90;;;;;;4997099;28;20102;-80
2023/11/09 03:43:55;;;;;;;77.18;28.42;;;0.00;99.90;;;;;;5077694;28;20037;-76
2023/11/09 03:46:21;;;;;;;33.65;16.20;;;0.00;99.90;;;;;;5009229;28;20077;-76
2023/11/09 03:48:47;;;;;;;24.92;12.98;;;0.00;99.90;;;;;;5060780;28;20040;-76
2023/11/09 03:51:13;;;;;;;29.05;13.15;;;-0.10;99.90;;;;;;5009165;28;20608;-77
2023/11/09 03:53:39;;;;;;;21.23;11.27;;;0.00;99.90;;;;;;5077203;28;20022;-81
2023/11/09 03:56:05;;;;;;;44.90;17.70;;;-0.10;99.90;;;;;;5077106;28;20038;-76
2023/11/09 03:58:31;;;;;;;85.60;27.63;;;-0.10;99.90;;;;;;5009566;28;20028;-76
2023/11/09 04:00:57;;;;;;;95.75;30.15;;;-0.10;99.90;;;;;;5079701;28;20025;-76
2023/11/09 04:03:23;;;;;;;138.10;47.17;;;-0.10;99.90;;;;;;5081332;28;20413;-81
2023/11/09 04:05:48;;;;;;;122.68;41.90;;;-0.10;99.90;;;;;;5080870;28;20018;-76
2023/11/09 04:08:14;;;;;;;129.77;40.90;;;-0.20;99.90;;;;;;5080999;28;20025;-80
2023/11/09 04:10:40;;;;;;;126.53;40.25;;;-0.20;99.90;;;;;;5079365;28;20585;-80
2023/11/09 04:13:05;;;;;;;125.18;39.20;;;-0.30;99.90;;;;;;5081084;28;20067;-79
2023/11/09 04:15:31;;;;;;;125.15;41.45;;;-0.30;99.90;;;;;;5012430;28;20490;-80
2023/11/09 04:17:57;;;;;;;109.65;39.25;;;-0.30;99.90;;;;;;5080673;28;20022;-80
2023/11/09 04:20:23;;;;;;;100.18;34.90;;;-0.30;99.90;;;;;;5012476;28;20014;-75
2023/11/09 04:22:48;;;;;;;35.88;14.93;;;-0.30;99.90;;;;;;5080480;28;20132;-80
2023/11/09 04:25:14;;;;;;;27.98;13.10;;;-0.30;99.90;;;;;;5077740;28;20114;-76
2023/11/09 04:27:42;;;;;;;28.67;12.63;;;-0.30;99.90;;;;;;5012550;28;20113;-76
2023/11/09 04:30:16;;;;;;;25.10;11.70;;;-0.30;99.90;;;;;;5011915;28;20018;-80
2023/11/09 04:32:42;;;;;;;19.85;10.32;;;-0.40;99.90;;;;;;5034623;28;20109;-79
2023/11/09 04:35:09;;;;;;;19.80;10.50;;;-0.40;99.90;;;;;;5009594;28;20045;-76
2023/11/09 04:37:38;;;;;;;17.80;10.25;;;-0.40;99.90;;;;;;5012380;28;20517;-77
2023/11/09 04:40:15;;;;;;;21.15;10.23;;;-0.40;99.90;;;;;;5080177;28;20071;-76
2023/11/09 04:42:43;;;;;;;21.98;10.38;;;-0.40;99.90;;;;;;5080348;28;20399;-76
2023/11/09 04:45:13;;;;;;;20.45;10.73;;;-0.40;99.90;;;;;;5080124;28;20014;-80
2023/11/09 04:47:42;;;;;;;18.02;10.75;;;-0.40;99.90;;;;;;5012243;28;20041;-76
2023/11/09 04:50:17;;;;;;;21.55;11.25;;;-0.40;99.90;;;;;;5067421;28;20030;-76
2023/11/09 04:52:56;;;;;;;20.85;11.10;;;-0.40;99.90;;;;;;5011827;28;20142;-76
2023/11/09 04:55:31;;;;;;;17.20;10.45;;;-0.40;99.90;;;;;;5012076;28;20117;-79
2023/11/09 05:08:53;;;;;;;15.23;8.85;;;-0.50;99.90;;;;;;5011945;28;20494;-80
2023/11/09 05:11:19;;;;;;;15.95;9.45;;;-0.50;99.90;;;;;;5011681;28;20018;-79
2023/11/09 05:13:45;;;;;;;14.88;9.45;;;-0.50;99.90;;;;;;5011824;28;20053;-80
2023/11/09 05:16:10;;;;;;;20.75;10.63;;;-0.50;99.90;;;;;;5079635;28;20113;-80
2023/11/09 05:18:38;;;;;;;18.27;9.60;;;-0.60;99.90;;;;;;5079981;28;20018;-79
2023/11/09 05:21:04;;;;;;;17.80;9.77;;;-0.60;99.90;;;;;;5079137;28;20068;-75
2023/11/09 05:23:30;;;;;;;17.13;10.10;;;-0.60;99.90;;;;;;5011287;28;20022;-75
2023/11/09 05:25:55;;;;;;;21.63;9.85;;;-0.60;99.90;;;;;;5079451;28;20052;-80
2023/11/09 05:28:21;;;;;;;17.88;10.15;;;-0.60;99.90;;;;;;5011502;28;20025;-76
2023/11/09 05:30:50;;;;;;;23.30;10.60;;;-0.60;99.90;;;;;;5079289;28;20105;-79
2023/11/09 05:33:19;;;;;;;28.67;14.60;;;-0.60;99.90;;;;;;5079277;28;20448;-80
2023/11/09 05:35:45;;;;;;;36.42;16.92;;;-0.70;99.90;;;;;;5011410;28;20853;-76
2023/11/09 05:38:11;;;;;;;27.98;13.93;;;-0.70;99.90;;;;;;5079006;28;20467;-76
2023/11/09 05:40:37;;;;;;;28.02;13.02;;;-0.70;99.90;;;;;;5075938;28;20017;-76
2023/11/09 05:43:03;;;;;;;35.63;16.33;;;-0.70;99.90;;;;;;5006857;28;20034;-79
2023/11/09 05:45:29;;;;;;;29.15;14.60;;;-0.80;99.90;;;;;;5079348;28;20093;-80
2023/11/09 05:47:56;;;;;;;36.65;16.27;;;-0.80;99.90;;;;;;5078940;28;20050;-76
2023/11/09 05:50:22;;;;;;;43.53;20.33;;;-0.80;99.90;;;;;;5079319;28;20092;-80
2023/11/09 05:52:48;;;;;;;41.15;20.80;;;-0.70;99.90;;;;;;5011095;28;20065;-76
2023/11/09 05:55:13;;;;;;;47.78;22.20;;;-0.80;99.90;;;;;;5078902;28;20065;-75
2023/11/09 05:57:39;;;;;;;43.75;22.92;;;-0.80;99.90;;;;;;5003097;28;20025;-80
2023/11/09 06:00:06;;;;;;;45.63;22.40;;;-0.80;99.90;;;;;;5010582;28;20026;-80
2023/11/09 06:02:31;;;;;;;45.10;19.85;;;-0.70;99.90;;;;;;5010587;28;20112;-80
2023/11/09 06:04:57;;;;;;;42.78;20.55;;;-0.70;99.90;;;;;;5011075;28;20207;-80
2023/11/09 06:07:23;;;;;;;30.92;14.38;;;-0.70;99.90;;;;;;5010604;28;20040;-76
2023/11/09 06:09:48;;;;;;;27.88;14.30;;;-0.60;99.90;;;;;;5070154;28;20031;-80
2023/11/09 06:12:15;;;;;;;30.73;14.85;;;-0.60;99.90;;;;;;5006895;28;20038;-80
2023/11/09 06:14:42;;;;;;;35.67;15.50;;;-0.60;99.90;;;;;;5010844;28;20106;-79
2023/11/09 06:17:09;;;;;;;30.38;18.25;;;-0.50;99.90;;;;;;5010508;28;20532;-76
2023/11/09 06:19:35;;;;;;;27.42;12.95;;;-0.50;99.90;;;;;;5074761;28;20018;-76
2023/11/09 06:22:00;;;;;;;22.52;13.55;;;-0.40;99.90;;;;;;5077746;28;20030;-77
2023/11/09 06:24:26;;;;;;;26.45;14.82;;;-0.40;99.90;;;;;;5077658;28;20113;-81
2023/11/09 06:26:52;;;;;;;30.73;14.95;;;-0.40;99.90;;;;;;5010382;28;20037;-81
2023/11/09 06:29:18;;;;;;;21.35;11.98;;;-0.30;99.90;;;;;;5078453;28;20502;-77
2023/11/09 06:31:43;;;;;;;25.05;15.13;;;-0.20;99.90;;;;;;5075516;28;20048;-77
2023/11/09 06:34:14;;;;;;;27.45;14.93;;;-0.10;99.90;;;;;;5063939;28;20026;-81
2023/11/09 06:36:43;;;;;;;27.85;14.65;;;-0.10;99.90;;;;;;5078089;28;20030;-82
2023/11/09 06:39:10;;;;;;;23.55;13.95;;;-0.10;99.90;;;;;;5000288;28;20026;-81
2023/11/09 06:41:37;;;;;;;26.40;14.85;;;0.00;99.90;;;;;;5009876;28;20589;-78
2023/11/09 06:44:03;;;;;;;22.90;10.73;;;0.10;99.90;;;;;;5061627;28;20461;-81
2023/11/09 06:46:29;;;;;;;24.63;13.00;;;0.10;99.90;;;;;;5057857;28;20050;-82
2023/11/09 06:48:54;;;;;;;16.70;10.32;;;0.30;99.90;;;;;;4998296;28;20054;-81
2023/11/09 06:51:20;;;;;;;27.30;13.80;;;0.40;99.90;;;;;;5006549;28;20045;-82
2023/11/09 06:53:46;;;;;;;23.00;13.57;;;0.40;99.90;;;;;;5020690;28;20070;-82
2023/11/09 06:56:11;;;;;;;29.63;14.98;;;0.50;99.90;;;;;;5076588;28;20038;-81
2023/11/09 06:58:37;;;;;;;36.80;17.23;;;0.60;99.90;;;;;;5004343;28;20028;-81
2023/11/09 07:01:03;;;;;;;30.33;16.95;;;0.70;99.90;;;;;;5004045;28;20147;-81
2023/11/09 07:03:29;;;;;;;20.38;12.45;;;0.80;99.90;;;;;;4995645;28;20030;-81
2023/11/09 07:05:54;;;;;;;40.88;23.17;;;0.90;99.90;;;;;;5076734;28;20033;-81
2023/11/09 07:08:27;;;;;;;39.42;24.75;;;1.10;99.90;;;;;;5076333;28;20026;-77
2023/11/09 07:10:53;;;;;;;35.30;20.17;;;1.30;99.90;;;;;;5060737;28;20388;-78
2023/11/09 07:13:19;;;;;;;38.15;18.45;;;1.40;99.90;;;;;;5072806;28;20029;-77
2023/11/09 07:15:47;;;;;;;30.98;17.45;;;1.50;99.90;;;;;;5067739;28;20077;-77
2023/11/09 07:18:14;;;;;;;30.02;18.02;;;1.60;99.90;;;;;;5066482;28;20022;-77
2023/11/09 07:20:41;;;;;;;32.95;17.85;;;1.70;99.90;;;;;;5070956;28;20415;-77
2023/11/09 07:23:07;;;;;;;28.90;20.08;;;1.80;99.90;;;;;;5002093;28;20076;-77
2023/11/09 07:25:36;;;;;;;24.48;13.65;;;2.00;99.90;;;;;;5013093;28;20388;-77
2023/11/09 07:28:03;;;;;;;20.60;12.27;;;2.10;99.90;;;;;;5091096;28;20024;-77
2023/11/09 07:30:31;;;;;;;19.38;11.70;;;2.30;99.90;;;;;;5009603;28;20574;-76
2023/11/09 07:32:59;;;;;;;18.58;10.55;;;2.50;99.90;;;;;;5071533;28;20022;-77
2023/11/09 07:35:25;;;;;;;16.42;9.38;;;2.70;99.90;;;;;;5077296;28;20395;-77
2023/11/09 07:37:51;;;;;;;20.92;10.45;;;2.90;99.90;;;;;;5079199;28;20018;-77
2023/11/09 07:40:18;;;;;;;17.23;10.25;;;3.10;99.90;;;;;;5078080;28;20518;-77
2023/11/09 07:42:43;;;;;;;12.57;8.95;;;3.30;99.90;;;;;;5078618;28;20022;-82
2023/11/09 07:45:10;;;;;;;12.55;7.43;;;3.50;99.90;;;;;;5010991;28;20531;-77
2023/11/09 07:47:36;;;;;;;21.00;9.52;;;3.70;99.90;;;;;;5079252;28;20045;-82
2023/11/09 07:50:04;;;;;;;11.88;7.68;;;3.90;99.90;;;;;;5079269;28;20014;-78
2023/11/09 07:52:30;;;;;;;14.20;8.52;;;4.10;99.90;;;;;;5078241;28;20060;-82
2023/11/09 07:54:56;;;;;;;16.30;8.85;;;4.30;99.90;;;;;;5078726;28;20026;-77
2023/11/09 07:57:22;;;;;;;12.25;7.32;;;4.50;99.90;;;;;;5079202;28;20102;-82
2023/11/09 07:59:47;;;;;;;20.98;12.18;;;4.60;99.90;;;;;;5078850;28;20026;-82
2023/11/09 08:02:13;;;;;;;17.77;11.68;;;4.80;99.90;;;;;;5079113;28;20022;-81
2023/11/09 08:04:42;;;;;;;12.30;7.60;;;5.00;99.90;;;;;;5080460;28;20022;-77
2023/11/09 08:07:08;;;;;;;13.30;9.10;;;5.20;99.90;;;;;;5012858;28;20056;-77
2023/11/09 08:09:36;;;;;;;13.55;6.65;;;5.40;99.90;;;;;;5080798;28;20025;-77
2023/11/09 08:12:01;;;;;;;11.77;6.72;;;5.50;99.90;;;;;;5080686;28;20025;-77
2023/11/09 08:14:27;;;;;;;10.00;5.75;;;5.70;99.90;;;;;;5080903;28;20022;-77
2023/11/09 08:16:53;;;;;;;8.02;5.97;;;5.90;99.90;;;;;;5079256;28;20026;-78
2023/11/09 08:19:19;;;;;;;13.45;7.20;;;6.10;99.90;;;;;;5080656;28;20026;-82
2023/11/09 08:21:45;;;;;;;11.60;6.80;;;6.30;99.90;;;;;;5012628;28;20025;-82
2023/11/09 08:24:11;;;;;;;18.85;8.77;;;6.40;99.90;;;;;;5012525;28;20018;-77
2023/11/09 08:26:36;;;;;;;15.75;8.48;;;6.60;99.90;;;;;;5080597;28;20049;-77
2023/11/09 08:29:02;;;;;;;14.93;7.70;;;6.70;99.90;;;;;;5012375;28;20037;-78
2023/11/09 08:31:28;;;;;;;16.80;8.57;;;6.90;99.90;;;;;;5080471;28;20039;-83
2023/11/09 08:33:54;;;;;;;12.40;7.05;;;7.00;99.90;;;;;;5080338;28;20078;-82
2023/11/09 08:36:20;;;;;;;14.15;6.63;;;7.10;99.90;;;;;;5012323;28;20073;-82
2023/11/09 08:38:46;;;;;;;11.85;6.30;;;7.30;99.90;;;;;;5012420;28;20099;-83
2023/11/09 08:41:12;;;;;;;10.35;4.72;;;7.40;99.90;;;;;;5012371;28;20097;-77
2023/11/09 08:43:39;;;;;;;13.63;5.38;;;7.50;99.90;;;;;;5080249;28;20496;-77
2023/11/09 08:46:04;;;;;;;9.57;4.10;;;7.70;99.90;;;;;;5079423;28;20053;-77
2023/11/09 08:48:31;;;;;;;8.13;4.30;;;7.80;99.90;;;;;;5080359;28;20034;-77
2023/11/09 08:51:00;;;;;;;11.43;4.68;;;7.80;99.90;;;;;;5080109;28;20062;-77
2023/11/09 08:53:31;;;;;;;6.05;3.35;;;8.00;99.90;;;;;;5080469;28;20170;-82
2023/11/09 08:55:57;;;;;;;10.13;4.28;;;8.00;99.90;;;;;;5011686;28;20041;-82
2023/11/09 08:58:24;;;;;;;4.97;2.97;;;8.20;99.90;;;;;;5012220;28;20037;-82
2023/11/09 09:00:50;;;;;;;3.83;1.95;;;8.30;99.90;;;;;;5011812;28;20026;-82
2023/11/09 09:03:16;;;;;;;5.00;3.22;;;8.40;99.90;;;;;;5012209;28;20026;-83
2023/11/09 09:05:42;;;;;;;3.33;2.67;;;8.40;97.70;;;;;;5012017;28;20499;-83
2023/11/09 09:08:08;;;;;;;7.70;3.30;;;8.50;95.50;;;;;;5012021;28;20025;-82
2023/11/09 09:10:35;;;;;;;4.97;2.50;;;8.60;93.60;;;;;;5015876;28;20503;-83
2023/11/09 09:13:02;;;;;;;3.08;1.92;;;8.70;92.70;;;;;;5080004;28;20368;-77
2023/11/09 09:15:28;;;;;;;6.20;3.60;;;8.70;89.30;;;;;;5067069;28;20042;-77
2023/11/09 09:17:55;;;;;;;5.88;2.20;;;8.80;86.40;;;;;;5011879;28;20458;-83
2023/11/09 09:20:21;;;;;;;3.70;2.20;;;8.80;83.40;;;;;;5011645;28;20022;-77
2023/11/09 09:22:50;;;;;;;4.47;2.70;;;8.90;83.90;;;;;;5079554;28;20038;-82
2023/11/09 09:25:16;;;;;;;3.28;2.13;;;9.00;81.10;;;;;;5079218;28;20022;-82
2023/11/09 09:27:46;;;;;;;4.45;2.58;;;9.10;79.80;;;;;;5070958;28;20117;-79
2023/11/09 09:30:21;;;;;;;4.57;1.70;;;9.10;78.70;;;;;;5007594;28;20032;-77
2023/11/09 09:32:51;;;;;;;4.30;1.55;;;9.20;77.50;;;;;;5011579;28;20471;-77
2023/11/09 09:35:20;;;;;;;1.20;1.17;;;9.30;78.80;;;;;;5011497;28;20026;-83
2023/11/09 09:37:47;;;;;;;3.10;1.83;;;9.40;76.90;;;;;;5011622;28;20014;-77
2023/11/09 09:40:22;;;;;;;2.22;1.25;;;9.40;75.10;;;;;;5079556;28;20037;-83
2023/11/09 09:42:52;;;;;;;3.35;1.70;;;9.50;72.70;;;;;;5011530;28;20083;-83
2023/11/09 09:45:21;;;;;;;4.68;1.25;;;9.50;72.00;;;;;;4999128;28;20022;-82
2023/11/09 09:47:49;;;;;;;2.85;1.20;;;9.60;70.20;;;;;;5078963;28;20491;-78
2023/11/09 09:50:22;;;;;;;4.80;2.33;;;9.60;70.10;;;;;;5079261;28;20026;-81
2023/11/09 09:52:51;;;;;;;3.40;1.42;;;9.70;69.70;;;;;;5010763;28;20030;-81
2023/11/09 09:55:21;;;;;;;4.40;1.65;;;9.70;68.70;;;;;;5079126;28;20074;-80
2023/11/09 09:57:47;;;;;;;2.05;1.40;;;9.70;67.80;;;;;;5077774;28;20010;-75
2023/11/09 10:00:25;;;;;;;7.60;3.83;;;9.80;68.10;;;;;;5011177;28;20489;-76
2023/11/09 10:02:54;;;;;;;5.32;1.23;;;9.90;68.80;;;;;;5078628;28;20112;-76
2023/11/09 10:05:24;;;;;;;1.25;1.05;;;10.00;67.50;;;;;;5078804;28;20108;-75
2023/11/09 10:07:57;;;;;;;6.63;2.63;;;10.00;66.50;;;;;;5078439;28;20030;-81
2023/11/09 10:10:25;;;;;;;4.47;2.00;;;10.00;67.60;;;;;;5010941;28;20058;-81
2023/11/09 10:12:51;;;;;;;6.80;3.45;;;10.10;67.00;;;;;;5010883;28;20105;-75
2023/11/09 10:15:16;;;;;;;6.35;3.10;;;10.20;67.40;;;;;;5078483;28;20568;-81
2023/11/09 10:17:43;;;;;;;4.90;3.08;;;10.20;66.80;;;;;;5078637;28;20049;-81
2023/11/09 10:20:14;;;;;;;5.30;2.90;;;10.20;67.10;;;;;;5078392;28;20054;-75
2023/11/09 10:22:40;;;;;;;3.67;2.30;;;10.30;66.80;;;;;;5010966;28;20076;-75
2023/11/09 10:25:11;;;;;;;2.75;1.85;;;10.30;66.70;;;;;;5009146;28;20384;-75
2023/11/09 10:27:37;;;;;;;3.75;1.83;;;10.40;65.50;;;;;;5050122;28;20487;-81
2023/11/09 10:30:03;;;;;;;9.98;4.50;;;10.40;66.30;;;;;;5010285;28;20022;-75
2023/11/09 10:32:31;;;;;;;7.00;2.97;;;10.50;66.00;;;;;;5078426;28;20018;-75
2023/11/09 10:34:57;;;;;;;4.43;1.50;;;10.50;65.20;;;;;;5078132;28;20038;-81
2023/11/09 10:37:24;;;;;;;2.40;1.40;;;10.50;64.70;;;;;;5010415;28;20025;-75
2023/11/09 10:39:53;;;;;;;1.90;1.40;;;10.60;64.60;;;;;;5077852;28;20037;-75
2023/11/09 10:42:24;;;;;;;1.65;1.20;;;10.60;64.70;;;;;;5077881;28;20029;-75
2023/11/09 10:44:52;;;;;;;3.70;1.27;;;10.60;62.50;;;;;;5010399;28;20022;-81
2023/11/09 10:47:22;;;;;;;5.07;2.35;;;10.60;64.10;;;;;;5078083;28;20137;-82
2023/11/09 10:49:52;;;;;;;5.53;1.50;;;10.60;64.60;;;;;;5074151;28;20057;-82
2023/11/09 10:52:19;;;;;;;2.25;1.70;;;10.60;64.40;;;;;;5010334;28;20034;-82
2023/11/09 10:54:51;;;;;;;4.25;2.40;;;10.70;65.60;;;;;;5010166;28;20045;-82
2023/11/09 10:57:20;;;;;;;5.65;2.70;;;10.70;65.70;;;;;;5077817;28;20026;-82
2023/11/09 10:59:48;;;;;;;4.18;2.30;;;10.70;65.60;;;;;;5010184;28;20022;-82
2023/11/09 11:02:27;;;;;;;2.70;2.00;;;10.80;65.50;;;;;;5074778;28;20581;-82
2023/11/09 11:04:56;;;;;;;4.15;1.90;;;10.80;65.30;;;;;;4999075;28;20086;-76
2023/11/09 11:07:29;;;;;;;4.53;1.67;;;10.80;64.90;;;;;;5009960;28;20025;-76
2023/11/09 11:09:58;;;;;;;4.97;1.55;;;10.80;65.20;;;;;;5077668;28;20022;-82
2023/11/09 11:12:25;;;;;;;6.22;1.73;;;10.90;65.40;;;;;;5077573;28;20060;-82
2023/11/09 11:14:52;;;;;;;4.05;1.85;;;10.90;65.30;;;;;;5077998;28;20543;-76
2023/11/09 11:17:41;;;;;;;4.20;2.50;;;10.90;64.80;;;;;;5077500;28;20014;-82
2023/11/09 11:20:12;;;;;;;5.68;2.20;;;10.90;65.40;;;;;;5077504;28;20479;-76
2023/11/09 11:23:12;;;;;;;2.88;2.10;;;10.90;65.80;;;;;;5009708;28;20021;-82
2023/11/09 11:25:50;;;;;;;3.55;2.17;;;10.90;67.00;;;;;;5075973;28;20025;-76
2023/11/09 11:28:17;;;;;;;3.47;2.70;;;10.90;67.30;;;;;;5000765;28;20036;-76
2023/11/09 11:30:44;;;;;;;5.38;2.30;;;10.80;67.40;;;;;;5063505;28;20034;-76
2023/11/09 11:33:16;;;;;;;3.22;2.33;;;10.80;66.90;;;;;;5073694;28;20030;-76
2023/11/09 11:35:48;;;;;;;2.67;1.65;;;10.70;67.70;;;;;;5074685;28;20449;-76
2023/11/09 11:38:16;;;;;;;3.40;2.30;;;10.70;67.70;;;;;;5073134;28;20054;-76
2023/11/09 11:40:46;;;;;;;3.50;2.15;;;10.70;68.30;;;;;;5069336;28;20495;-76
2023/11/09 11:43:13;;;;;;;3.28;1.80;;;10.70;68.90;;;;;;5068728;28;20020;-83
2023/11/09 11:45:40;;;;;;;4.68;2.10;;;10.60;69.20;;;;;;5061637;28;20031;-83
2023/11/09 11:48:12;;;;;;;5.85;2.28;;;10.70;69.00;;;;;;5003575;28;20531;-82
2023/11/09 11:50:41;;;;;;;5.00;2.47;;;10.60;69.40;;;;;;5074757;28;20125;-82
2023/11/09 11:53:12;;;;;;;3.28;2.05;;;10.60;70.30;;;;;;4994296;28;20331;-82
2023/11/09 11:55:57;;;;;;;5.55;3.72;;;10.60;71.60;;;;;;5060649;28;20047;-82
2023/11/09 11:58:23;;;;;;;7.38;3.85;;;10.60;71.70;;;;;;5074147;28;20025;-82
2023/11/09 12:00:50;;;;;;;7.43;3.85;;;10.50;72.30;;;;;;5006908;28;20037;-82
2023/11/09 12:03:17;;;;;;;6.13;2.80;;;10.50;72.20;;;;;;4994307;28;20095;-82
2023/11/09 12:05:43;;;;;;;5.85;3.80;;;10.50;71.90;;;;;;4996369;28;20037;-83
2023/11/09 12:08:12;;;;;;;8.35;3.97;;;10.50;72.80;;;;;;5007601;28;20018;-83
2023/11/09 12:10:44;;;;;;;6.15;3.83;;;10.50;73.10;;;;;;5003854;28;20038;-83
2023/11/09 12:13:11;;;;;;;7.65;3.55;;;10.60;73.80;;;;;;4999133;28;20030;-82
2023/11/09 12:15:37;;;;;;;4.68;3.00;;;10.60;73.90;;;;;;5059587;28;20038;-82
2023/11/09 12:18:04;;;;;;;5.25;3.13;;;10.60;73.90;;;;;;5063764;28;20082;-82
2023/11/09 12:20:33;;;;;;;4.00;2.85;;;10.70;75.10;;;;;;5062195;28;20041;-82
2023/11/09 12:23:10;;;;;;;9.15;2.95;;;10.70;74.50;;;;;;5078343;28;20022;-82
2023/11/09 12:25:52;;;;;;;5.82;2.90;;;10.70;75.40;;;;;;4999589;28;20037;-82
2023/11/09 12:28:19;;;;;;;7.53;3.97;;;10.80;74.50;;;;;;5004541;28;20130;-82
2023/11/09 12:30:46;;;;;;;9.77;5.93;;;10.80;74.50;;;;;;5009263;28;20041;-82
2023/11/09 12:33:16;;;;;;;10.35;6.38;;;10.80;74.70;;;;;;5079122;28;20045;-83
2023/11/09 12:35:57;;;;;;;7.45;3.40;;;10.90;74.70;;;;;;5078183;28;20387;-82
2023/11/09 12:38:23;;;;;;;6.38;4.00;;;10.90;73.20;;;;;;5079130;28;20383;-83
2023/11/09 12:40:49;;;;;;;7.28;3.95;;;11.00;72.90;;;;;;5075712;28;20022;-82
2023/11/09 12:43:15;;;;;;;4.15;2.90;;;11.10;73.70;;;;;;5001819;28;20023;-77
2023/11/09 12:45:42;;;;;;;3.47;2.50;;;11.10;72.50;;;;;;5074542;28;20383;-77
2023/11/09 12:48:10;;;;;;;2.90;2.30;;;11.20;72.50;;;;;;5078467;28;20094;-76
2023/11/09 12:50:35;;;;;;;4.70;1.63;;;11.20;72.50;;;;;;5000389;28;20018;-76
2023/11/09 12:53:02;;;;;;;2.45;1.80;;;11.30;72.10;;;;;;5078028;28;20098;-76